Egilsstaðir Airport

Airport
ICAO code: 
BIEG
IATA Code: 
EGS
Summary
ICAO Region: 
NAT
Territory: 
Location: 
, Austurland
Serving: 
Egilsstadir
Elevation: 
76 ft
Coordinates: 
Aerial View: 
65° 16' 59.999" N, 14° 24' 5" W
Metar
Observation
BIEG 031400Z 17005KT CAVOK M05/M08 Q0986
Station
Egilsstadir
Date/Time
2021-12-03 14:00:00
Wind direction
170°
Wind speed
05 kts
Lowest cloud amount
clouds and visibility OK
Temperature
-5°C
Dew point
-8°C
Humidity
79%
QNH
986 hPa
Weather condition
n/a

Runways

Designator Length Width Surface Rops
4/22 2000 45 ASP Yes/Yes
Airport map: 
Aerial View: 

SKYbrary Partners:

Safety knowledge contributed by: